Time;durP1;ratioP1;P1;durP2;ratioP2;P2;SDS_P1;SDS_P2;PMS_P1;PMS_P2;Temp;Humidity;BMP_temperature;BMP_pressure;BME280_temperature;BME280_humidity;BME280_pressure;Samples;Min_cycle;Max_cycle;Signal;HPM_P1;HPM_P2
2022/10/04 00:00:25;;;;;;;14.55;13.70;;;;;;;10.61;100.00;100492.50;5026572;28;20033;-65
2022/10/04 00:02:57;;;;;;;14.63;13.73;;;;;;;10.60;100.00;100496.97;5025259;28;20125;-65
2022/10/04 00:05:24;;;;;;;14.27;13.48;;;;;;;10.54;100.00;100502.97;5023892;28;20092;-66
2022/10/04 00:07:55;;;;;;;14.27;13.48;;;;;;;10.49;100.00;100497.38;5020675;28;20611;-66
2022/10/04 00:10:30;;;;;;;14.30;13.50;;;;;;;10.40;100.00;100496.59;5026712;28;20028;-65
2022/10/04 00:12:59;;;;;;;14.20;13.40;;;;;;;10.43;100.00;100506.88;5025684;28;20029;-65
2022/10/04 00:15:36;;;;;;;14.73;13.82;;;;;;;10.49;100.00;100506.16;5028872;28;20022;-65
2022/10/04 00:18:11;;;;;;;15.10;14.20;;;;;;;10.48;100.00;100504.50;5030353;28;20111;-65
2022/10/04 00:20:46;;;;;;;14.38;13.57;;;;;;;10.41;100.00;100500.91;5024791;28;20033;-64
2022/10/04 00:23:24;;;;;;;14.30;13.50;;;;;;;10.37;100.00;100506.75;5022313;28;20080;-65
2022/10/04 00:25:56;;;;;;;13.95;13.25;;;;;;;10.27;100.00;100500.81;5025440;28;20790;-65
2022/10/04 00:28:24;;;;;;;14.30;13.50;;;;;;;10.14;100.00;100510.13;5025250;28;20187;-64
2022/10/04 00:31:10;;;;;;;14.15;13.35;;;;;;;10.29;100.00;100502.31;5029912;28;20021;-65
2022/10/04 00:33:41;;;;;;;14.50;13.70;;;;;;;10.23;100.00;100510.94;5020924;28;20026;-65
2022/10/04 00:36:25;;;;;;;14.20;13.40;;;;;;;10.07;100.00;100505.69;5028109;28;20167;-65
2022/10/04 00:39:12;;;;;;;14.55;13.75;;;;;;;10.07;100.00;100509.16;5023413;28;20435;-64
2022/10/04 00:41:47;;;;;;;14.45;13.65;;;;;;;10.01;100.00;100503.72;5025155;28;20068;-64
2022/10/04 00:44:37;;;;;;;14.55;13.75;;;;;;;9.96;100.00;100505.03;5024263;28;20048;-65
2022/10/04 00:47:18;;;;;;;15.38;14.48;;;;;;;10.00;100.00;100500.25;5029966;28;20029;-66
2022/10/04 00:49:48;;;;;;;14.75;13.95;;;;;;;9.97;100.00;100492.63;5023993;28;20032;-64
2022/10/04 00:52:21;;;;;;;15.40;14.50;;;;;;;9.90;100.00;100504.91;5027103;28;20026;-64
2022/10/04 00:54:51;;;;;;;15.40;14.50;;;;;;;9.91;100.00;100507.38;5027510;28;20026;-65
2022/10/04 00:57:26;;;;;;;16.05;15.13;;;;;;;9.80;100.00;100494.50;5028381;28;20518;-65
2022/10/04 00:59:56;;;;;;;15.52;14.68;;;;;;;9.96;100.00;100504.22;5022805;28;20113;-66
2022/10/04 01:02:29;;;;;;;15.85;14.95;;;;;;;9.82;100.00;100504.94;5024083;28;20026;-65
2022/10/04 01:05:14;;;;;;;15.88;14.95;;;;;;;9.84;100.00;100506.44;5023936;28;20021;-64
2022/10/04 01:07:42;;;;;;;16.08;15.10;;;;;;;9.92;100.00;100509.06;5022405;28;20030;-65
2022/10/04 01:10:17;;;;;;;15.30;14.40;;;;;;;9.77;100.00;100502.81;5022375;28;20520;-65
2022/10/04 01:13:00;;;;;;;15.57;14.68;;;;;;;9.75;100.00;100503.94;5022493;28;20106;-65
2022/10/04 01:15:58;;;;;;;15.88;14.98;;;;;;;9.77;100.00;100501.94;5028038;28;20162;-65
2022/10/04 01:18:23;;;;;;;15.90;14.98;;;;;;;9.81;100.00;100512.06;5026598;28;20029;-64
2022/10/04 01:21:07;;;;;;;16.00;15.10;;;;;;;9.78;100.00;100512.41;5023617;28;20392;-64
2022/10/04 01:23:42;;;;;;;16.03;15.07;;;;;;;9.76;100.00;100518.84;5026378;28;20052;-64
2022/10/04 01:26:29;;;;;;;16.08;15.13;;;;;;;9.72;100.00;100510.44;5026054;28;20017;-65
2022/10/04 01:29:00;;;;;;;17.02;15.88;;;;;;;9.83;100.00;100520.66;5020178;28;20061;-64
2022/10/04 01:31:27;;;;;;;15.18;14.38;;;;;;;9.86;100.00;100522.97;5022395;28;20084;-65
2022/10/04 01:33:54;;;;;;;16.13;15.13;;;;;;;9.86;100.00;100519.50;5018282;28;20392;-66
2022/10/04 01:36:20;;;;;;;15.55;14.65;;;;;;;9.76;100.00;100521.50;5020302;28;20022;-66
2022/10/04 01:38:47;;;;;;;14.93;14.13;;;;;;;9.87;100.00;100529.09;5019793;28;20508;-65
2022/10/04 01:41:17;;;;;;;15.73;14.75;;;;;;;9.88;100.00;100530.75;5027878;28;20037;-65
2022/10/04 01:43:49;;;;;;;15.23;14.32;;;;;;;9.89;100.00;100535.88;5022769;28;20029;-65
2022/10/04 01:46:24;;;;;;;15.23;14.32;;;;;;;9.72;100.00;100528.16;5015351;28;20034;-65
2022/10/04 01:48:52;;;;;;;15.90;14.90;;;;;;;9.64;100.00;100529.00;5022660;28;20143;-65
2022/10/04 01:51:53;;;;;;;15.38;14.48;;;;;;;9.73;100.00;100529.78;5028751;28;20473;-65
2022/10/04 01:54:23;;;;;;;14.63;13.82;;;;;;;9.68;100.00;100538.22;5019852;28;20565;-65
2022/10/04 01:56:57;;;;;;;14.50;13.70;;;;;;;9.59;100.00;100533.94;5020850;28;20052;-65
2022/10/04 01:59:28;;;;;;;15.13;14.23;;;;;;;9.58;100.00;100533.13;5025462;28;20031;-65
2022/10/04 02:02:03;;;;;;;15.43;14.52;;;;;;;9.64;100.00;100536.94;5022842;28;20087;-65
2022/10/04 02:04:35;;;;;;;14.80;13.90;;;;;;;9.64;100.00;100539.59;5026931;28;20518;-65
2022/10/04 02:07:02;;;;;;;15.02;14.13;;;;;;;9.60;100.00;100541.72;5022001;28;20083;-64
2022/10/04 02:09:34;;;;;;;14.57;13.77;;;;;;;9.64;100.00;100550.19;5025437;28;20026;-64
2022/10/04 02:12:01;;;;;;;14.77;13.98;;;;;;;9.55;100.00;100552.00;5026722;28;20091;-65
2022/10/04 02:14:34;;;;;;;15.27;14.38;;;;;;;9.59;100.00;100558.63;5026134;28;20014;-64
2022/10/04 02:17:04;;;;;;;15.32;14.43;;;;;;;9.54;100.00;100560.94;5024808;28;20037;-64
2022/10/04 02:19:38;;;;;;;15.45;14.50;;;;;;;9.50;100.00;100561.44;5025805;28;20109;-65
2022/10/04 02:22:06;;;;;;;14.80;14.00;;;;;;;9.49;100.00;100554.50;5018545;28;20666;-65
2022/10/04 02:24:34;;;;;;;15.23;14.40;;;;;;;9.58;100.00;100564.91;5022344;28;20799;-65
2022/10/04 02:27:00;;;;;;;14.85;14.05;;;;;;;9.65;100.00;100560.59;5022988;28;20041;-65
2022/10/04 02:29:25;;;;;;;15.52;14.63;;;;;;;9.66;100.00;100564.06;5020264;28;20546;-65
2022/10/04 02:34:36;;;;;;;15.10;14.20;;;;;;;9.72;100.00;100570.53;5019464;28;20036;-65
2022/10/04 02:37:04;;;;;;;15.18;14.27;;;;;;;9.78;100.00;100570.69;5016594;28;20458;-65
2022/10/04 02:39:42;;;;;;;14.82;13.95;;;;;;;9.60;100.00;100570.03;5027590;28;20033;-65
2022/10/04 02:42:33;;;;;;;14.13;13.40;;;;;;;9.76;100.00;100569.19;5025382;28;20021;-65
2022/10/04 02:45:19;;;;;;;14.85;14.02;;;;;;;9.75;100.00;100570.19;5023922;28;20034;-65
2022/10/04 02:47:59;;;;;;;14.60;13.80;;;;;;;9.61;100.00;100563.75;5054733;28;20029;-65
2022/10/04 02:50:29;;;;;;;14.45;13.65;;;;;;;9.55;100.00;100570.56;5022288;28;20524;-65
2022/10/04 02:53:18;;;;;;;14.98;14.07;;;;;;;9.61;100.00;100571.69;5022116;28;20063;-64
2022/10/04 02:55:45;;;;;;;15.02;14.13;;;;;;;9.70;100.00;100576.00;5015697;28;20037;-65
2022/10/04 02:58:24;;;;;;;15.02;14.13;;;;;;;9.67;100.00;100571.84;5021135;28;20323;-64
2022/10/04 03:00:54;;;;;;;14.65;13.85;;;;;;;9.66;100.00;100577.31;5024467;28;20393;-64
2022/10/04 03:03:30;;;;;;;15.13;14.23;;;;;;;9.74;100.00;100573.81;5027488;28;20053;-65
2022/10/04 03:06:09;;;;;;;15.95;14.95;;;;;;;9.79;100.00;100569.69;5027707;28;20022;-64
2022/10/04 03:08:43;;;;;;;15.45;14.48;;;;;;;9.82;100.00;100577.28;5025163;28;20022;-65
2022/10/04 03:11:10;;;;;;;14.93;14.02;;;;;;;9.88;100.00;100576.63;5027083;28;20029;-65
2022/10/04 03:13:38;;;;;;;14.48;13.68;;;;;;;9.84;100.00;100590.34;5024646;28;20038;-65
2022/10/04 03:16:04;;;;;;;13.98;13.23;;;;;;;9.77;100.00;100582.28;5030928;28;20038;-65
2022/10/04 03:18:31;;;;;;;14.25;13.45;;;;;;;9.86;100.00;100585.75;5030528;28;20109;-66
2022/10/04 03:21:00;;;;;;;14.93;14.02;;;;;;;9.76;100.00;100585.91;5026066;28;20039;-64
2022/10/04 03:23:30;;;;;;;13.77;13.07;;;;;;;9.78;100.00;100591.06;5027072;28;20104;-65
2022/10/04 03:26:18;;;;;;;14.48;13.68;;;;;;;9.72;100.00;100589.91;5025953;28;20033;-64
2022/10/04 03:28:45;;;;;;;14.00;13.23;;;;;;;9.78;100.00;100583.09;5022193;28;20042;-65
2022/10/04 03:31:13;;;;;;;14.65;13.75;;;;;;;9.77;100.00;100589.38;5023451;28;20022;-64
2022/10/04 03:33:39;;;;;;;14.60;13.70;;;;;;;9.81;100.00;100596.81;5029104;28;20080;-64
2022/10/04 03:36:06;;;;;;;14.90;14.00;;;;;;;9.76;100.00;100590.38;5028594;28;20034;-65
2022/10/04 03:38:34;;;;;;;14.95;14.05;;;;;;;9.75;100.00;100588.72;5028298;28;20033;-65
2022/10/04 03:41:01;;;;;;;14.80;13.90;;;;;;;9.72;100.00;100586.41;5024842;28;20025;-65
2022/10/04 03:43:32;;;;;;;15.82;14.82;;;;;;;9.71;100.00;100593.53;5026832;28;20393;-66
2022/10/04 03:46:00;;;;;;;16.38;15.23;;;;;;;9.72;100.00;100597.84;5026684;28;20515;-66
2022/10/04 03:48:41;;;;;;;15.70;14.70;;;;;;;9.74;100.00;100595.03;5023533;28;20029;-66
2022/10/04 03:51:14;;;;;;;15.07;14.18;;;;;;;9.66;100.00;100594.03;5029047;28;20028;-65
2022/10/04 03:53:44;;;;;;;14.50;13.70;;;;;;;9.71;100.00;100595.38;5024809;28;20492;-67
2022/10/04 03:56:27;;;;;;;14.32;13.52;;;;;;;9.72;100.00;100599.66;5029975;28;20113;-66
2022/10/04 03:58:53;;;;;;;15.65;14.65;;;;;;;9.65;100.00;100599.50;5025779;28;20507;-66
2022/10/04 04:01:44;;;;;;;15.32;14.32;;;;;;;9.65;100.00;100610.09;5026327;28;20033;-66
2022/10/04 04:04:18;;;;;;;15.18;14.23;;;;;;;9.62;100.00;100608.63;5046322;28;20558;-65
2022/10/04 04:06:52;;;;;;;15.27;14.32;;;;;;;9.73;100.00;100611.91;5027006;28;20033;-65
2022/10/04 04:09:27;;;;;;;14.23;13.43;;;;;;;9.85;100.00;100619.34;5031556;28;20029;-65
2022/10/04 04:11:56;;;;;;;15.30;14.30;;;;;;;9.82;100.00;100618.84;5031172;28;20086;-65
2022/10/04 04:14:26;;;;;;;14.57;13.75;;;;;;;9.79;100.00;100624.50;5022976;28;20167;-65
2022/10/04 04:17:28;;;;;;;14.52;13.73;;;;;;;9.99;100.00;100623.16;5023031;28;20091;-65
2022/10/04 04:19:58;;;;;;;14.90;14.00;;;;;;;10.18;100.00;100630.72;5024476;28;20115;-64
2022/10/04 04:22:23;;;;;;;14.52;13.68;;;;;;;10.24;100.00;100630.06;5027759;28;20392;-65
2022/10/04 04:24:49;;;;;;;14.43;13.57;;;;;;;10.41;100.00;100630.00;5024332;28;20033;-65
2022/10/04 04:27:17;;;;;;;15.45;14.45;;;;;;;10.44;100.00;100632.34;5023677;28;20033;-66
2022/10/04 04:29:42;;;;;;;15.52;14.52;;;;;;;10.42;100.00;100642.28;5024270;28;20485;-65
2022/10/04 04:32:16;;;;;;;14.70;13.80;;;;;;;10.40;100.00;100644.28;5024989;28;20029;-66
2022/10/04 04:35:05;;;;;;;16.00;14.93;;;;;;;10.40;100.00;100641.63;5041593;28;20029;-65
2022/10/04 04:37:34;;;;;;;15.73;14.65;;;;;;;10.52;100.00;100634.97;5021682;28;20040;-65
2022/10/04 04:40:11;;;;;;;14.20;13.40;;;;;;;10.90;100.00;100643.09;5027184;28;20025;-65
2022/10/04 04:42:36;;;;;;;17.58;16.27;;;;;;;11.11;100.00;100648.59;5022869;28;20040;-66
2022/10/04 04:45:16;;;;;;;15.23;14.30;;;;;;;11.85;100.00;100651.56;5027416;28;20124;-64
2022/10/04 04:47:45;;;;;;;17.27;16.05;;;;;;;12.68;100.00;100647.84;5027258;28;20029;-65
2022/10/04 04:50:17;;;;;;;14.05;13.25;;;;;;;13.04;100.00;100658.53;5022809;28;20032;-64
2022/10/04 04:52:50;;;;;;;15.07;14.15;;;;;;;13.74;100.00;100649.03;5018456;28;20052;-65
2022/10/04 04:55:41;;;;;;;14.48;13.60;;;;;;;15.35;100.00;100664.72;5019475;28;20377;-64
2022/10/04 04:58:18;;;;;;;14.82;13.93;;;;;;;17.02;100.00;100663.50;5026933;28;20041;-65
2022/10/04 05:00:51;;;;;;;14.35;13.55;;;;;;;18.93;100.00;100669.13;5017689;28;20053;-65
2022/10/04 05:03:18;;;;;;;13.25;12.55;;;;;;;20.29;99.89;100664.81;5026256;28;20044;-65
2022/10/04 05:05:48;;;;;;;13.82;13.13;;;;;;;21.33;91.46;100662.09;5026866;28;20037;-64
2022/10/04 05:08:29;;;;;;;14.13;13.32;;;;;;;20.64;96.93;100667.47;5025629;28;20481;-65
2022/10/04 05:11:08;;;;;;;15.43;14.52;;;;;;;19.64;100.00;100675.63;5026854;28;20029;-65
2022/10/04 05:13:40;;;;;;;13.98;13.25;;;;;;;20.06;98.40;100678.28;5021011;28;20373;-64
2022/10/04 05:16:20;;;;;;;13.65;12.95;;;;;;;20.04;92.17;100681.19;5028254;28;20022;-64
2022/10/04 05:18:45;;;;;;;13.93;13.23;;;;;;;19.92;92.32;100687.63;5025303;28;20033;-64
2022/10/04 05:21:19;;;;;;;14.07;13.32;;;;;;;20.03;92.43;100689.50;5022228;28;20092;-65
2022/10/04 05:23:44;;;;;;;13.90;13.20;;;;;;;21.53;83.64;100688.66;5024959;28;20040;-65
2022/10/04 05:26:13;;;;;;;13.45;12.75;;;;;;;22.01;79.58;100690.78;5025050;28;20030;-65
2022/10/04 05:28:39;;;;;;;13.73;13.02;;;;;;;21.76;80.03;100707.41;5025923;28;20038;-65
2022/10/04 05:31:46;;;;;;;13.23;12.52;;;;;;;22.76;73.68;100704.84;5026599;28;20033;-68
2022/10/04 05:34:24;;;;;;;13.27;12.60;;;;;;;22.29;73.27;100700.72;5026922;28;20251;-64
2022/10/04 05:37:24;;;;;;;14.68;13.88;;;;;;;22.86;69.39;100708.56;5025390;28;20025;-63
2022/10/04 05:40:03;;;;;;;14.23;13.52;;;;;;;22.60;70.21;100703.84;5019973;28;20140;-65
2022/10/04 05:42:48;;;;;;;12.68;12.07;;;;;;;23.91;61.43;100711.00;5020053;28;20477;-64
2022/10/04 05:45:17;;;;;;;13.63;12.93;;;;;;;24.37;56.95;100711.38;5022102;28;20569;-64
2022/10/04 05:47:46;;;;;;;13.65;12.95;;;;;;;24.03;58.29;100719.78;5021743;28;20056;-65
2022/10/04 05:50:24;;;;;;;12.95;12.35;;;;;;;23.84;58.01;100716.66;5026318;28;20108;-64
2022/10/04 05:52:51;;;;;;;12.68;12.07;;;;;;;24.71;57.61;100722.69;5023738;28;20060;-65
2022/10/04 05:55:22;;;;;;;13.05;12.45;;;;;;;27.31;46.64;100728.16;5020239;28;20026;-64
2022/10/04 05:58:21;;;;;;;13.73;13.02;;;;;;;28.24;41.51;100724.50;5021004;28;20040;-65
2022/10/04 06:01:06;;;;;;;14.70;13.95;;;;;;;27.71;41.25;100727.13;5021257;28;20034;-64
2022/10/04 06:03:58;;;;;;;12.60;12.00;;;;;;;28.01;40.31;100729.63;5026634;28;20082;-65
2022/10/04 06:06:35;;;;;;;13.48;12.88;;;;;;;28.14;39.28;100730.06;5027404;28;20025;-65
2022/10/04 06:09:26;;;;;;;12.98;12.38;;;;;;;28.81;38.02;100740.00;5023874;28;20531;-64
2022/10/04 06:12:17;;;;;;;13.15;12.55;;;;;;;29.55;36.42;100740.44;5022816;28;20040;-66
2022/10/04 06:15:08;;;;;;;13.32;12.73;;;;;;;31.09;33.93;100739.34;5023121;28;20029;-64
2022/10/04 06:18:15;;;;;;;12.70;12.10;;;;;;;30.92;34.53;100740.00;5024274;28;20036;-65
2022/10/04 06:20:41;;;;;;;12.40;11.80;;;;;;;31.93;33.05;100736.06;5022721;28;20030;-65
2022/10/04 06:23:13;;;;;;;13.25;12.65;;;;;;;30.99;33.02;100751.31;5021459;28;20523;-64
2022/10/04 06:25:59;;;;;;;12.60;12.00;;;;;;;31.47;30.90;100748.13;5027691;28;20053;-69
2022/10/04 06:28:38;;;;;;;12.30;11.73;;;;;;;31.08;32.32;100754.19;5016825;28;20033;-65
2022/10/04 06:31:24;;;;;;;13.00;12.40;;;;;;;31.71;31.73;100758.81;5022586;28;20018;-66
2022/10/04 06:34:00;;;;;;;13.10;12.50;;;;;;;31.75;31.97;100754.34;5022324;28;20087;-66
2022/10/04 06:36:32;;;;;;;12.43;11.82;;;;;;;30.34;33.06;100754.22;5020631;28;20477;-66
2022/10/04 06:39:09;;;;;;;12.40;11.80;;;;;;;31.40;32.44;100757.91;5027583;28;20044;-66
2022/10/04 06:41:53;;;;;;;12.80;12.20;;;;;;;29.53;34.73;100769.22;5026778;28;20380;-66
2022/10/04 06:44:35;;;;;;;12.32;11.73;;;;;;;29.14;33.94;100762.03;5024437;28;20034;-66
2022/10/04 06:47:31;;;;;;;12.75;12.15;;;;;;;29.76;33.99;100776.50;5025740;28;20527;-68
2022/10/04 06:50:19;;;;;;;12.00;11.50;;;;;;;30.36;32.79;100767.63;5018632;28;20060;-66
2022/10/04 06:53:16;;;;;;;12.77;12.18;;;;;;;28.85;35.38;100776.53;5021901;28;20041;-66
2022/10/04 06:56:03;;;;;;;13.45;12.85;;;;;;;26.55;40.33;100783.69;5023648;28;20033;-67
2022/10/04 06:59:01;;;;;;;13.30;12.70;;;;;;;25.25;43.03;100785.66;5025337;28;20420;-66
2022/10/04 07:01:31;;;;;;;13.10;12.50;;;;;;;25.69;43.26;100787.13;5023963;28;20029;-67
2022/10/04 07:04:02;;;;;;;13.98;13.27;;;;;;;25.62;44.45;100784.69;5015487;28;20036;-67
2022/10/04 07:06:39;;;;;;;13.10;12.50;;;;;;;25.58;43.96;100791.75;5027910;28;20040;-66
2022/10/04 07:09:15;;;;;;;13.60;12.90;;;;;;;25.56;43.79;100796.63;5023759;28;20029;-67
2022/10/04 07:11:52;;;;;;;12.63;12.02;;;;;;;25.10;44.05;100792.94;5027745;28;20075;-66
2022/10/04 07:14:23;;;;;;;12.80;12.20;;;;;;;23.52;53.06;100803.25;5026625;28;20440;-67
2022/10/04 07:16:50;;;;;;;13.50;12.80;;;;;;;23.73;53.17;100798.09;5026494;28;20093;-65
2022/10/04 07:19:18;;;;;;;13.68;12.98;;;;;;;21.56;57.50;100804.22;5024554;28;20022;-66
2022/10/04 07:22:04;;;;;;;13.20;12.50;;;;;;;21.84;62.02;100797.19;5028548;28;20033;-67
2022/10/04 07:24:56;;;;;;;13.07;12.48;;;;;;;21.79;63.45;100804.13;5022719;28;20029;-66
2022/10/04 07:27:21;;;;;;;14.23;13.48;;;;;;;21.81;65.88;100798.47;5028635;28;20017;-66
2022/10/04 07:29:53;;;;;;;13.52;12.82;;;;;;;22.98;61.33;100796.88;5019984;28;20033;-66
2022/10/04 07:32:29;;;;;;;13.50;12.80;;;;;;;22.39;66.14;100807.34;5025116;28;20040;-66
2022/10/04 07:34:54;;;;;;;14.13;13.43;;;;;;;22.70;64.77;100798.66;5021799;28;20025;-66
2022/10/04 07:37:20;;;;;;;12.68;12.07;;;;;;;22.78;60.55;100814.47;5023663;28;20389;-66
2022/10/04 07:39:58;;;;;;;12.80;12.20;;;;;;;22.63;59.13;100805.31;5021202;28;20396;-67
2022/10/04 07:42:58;;;;;;;13.63;12.93;;;;;;;22.50;63.53;100809.97;5020678;28;20026;-67
2022/10/04 07:45:32;;;;;;;13.57;12.88;;;;;;;22.79;62.90;100815.28;5017197;28;20053;-67
2022/10/04 07:48:14;;;;;;;14.43;13.63;;;;;;;24.09;54.75;100810.91;5020557;28;20116;-66
2022/10/04 07:50:46;;;;;;;12.45;11.85;;;;;;;23.80;54.91;100818.50;5027447;28;20052;-67
2022/10/04 07:53:31;;;;;;;12.93;12.32;;;;;;;24.79;49.13;100822.59;5023446;28;20052;-67
2022/10/04 07:56:05;;;;;;;12.85;12.25;;;;;;;24.49;47.81;100821.31;5027464;28;20788;-66
2022/10/04 07:58:49;;;;;;;13.17;12.57;;;;;;;26.52;42.80;100827.78;5022199;28;20034;-68
2022/10/04 08:01:29;;;;;;;13.07;12.48;;;;;;;26.11;40.20;100816.88;5024145;28;20025;-67
2022/10/04 08:04:00;;;;;;;12.25;11.68;;;;;;;26.18;40.43;100829.09;5031574;28;20128;-66
2022/10/04 08:06:43;;;;;;;12.18;11.57;;;;;;;26.00;39.04;100826.09;5028214;28;20025;-66
2022/10/04 08:09:41;;;;;;;12.55;11.95;;;;;;;27.07;37.00;100815.97;5025135;28;20075;-67
2022/10/04 08:12:22;;;;;;;12.38;11.77;;;;;;;26.21;38.62;100819.56;5027180;28;20029;-66
2022/10/04 08:14:53;;;;;;;12.70;12.10;;;;;;;25.67;40.10;100827.34;5022440;28;20021;-68
2022/10/04 08:18:05;;;;;;;12.50;11.90;;;;;;;26.27;38.87;100817.69;5028928;28;20025;-68
2022/10/04 08:20:55;;;;;;;12.43;11.82;;;;;;;26.36;39.17;100813.31;5012017;28;20041;-68
2022/10/04 08:23:32;;;;;;;12.25;11.65;;;;;;;26.90;36.46;100820.91;5029483;28;20025;-68
2022/10/04 08:26:04;;;;;;;12.98;12.38;;;;;;;24.34;42.67;100813.03;5022405;28;20036;-66
2022/10/04 08:32:22;;;;;;;13.52;12.82;;;;;;;25.61;38.50;100827.34;5020539;28;20163;-66
2022/10/04 08:35:02;;;;;;;;;;;;;;;25.77;37.36;100821.97;5017325;28;20100;-67
2022/10/04 08:37:39;;;;;;;13.15;12.55;;;;;;;25.90;37.49;100827.72;5027201;28;19917;-67
2022/10/04 08:40:11;;;;;;;13.60;12.90;;;;;;;26.00;37.58;100818.78;5024642;28;20377;-67
2022/10/04 08:42:55;;;;;;;13.32;12.63;;;;;;;24.87;38.89;100813.13;5023953;28;20112;-66
2022/10/04 08:45:26;;;;;;;13.80;13.10;;;;;;;24.99;41.07;100825.44;5025767;28;20040;-66
2022/10/04 08:48:23;;;;;;;13.80;13.10;;;;;;;25.75;39.52;100824.97;5022242;28;20185;-66
2022/10/04 08:51:16;;;;;;;13.05;12.45;;;;;;;24.78;39.46;100824.47;5022645;28;21005;-66
2022/10/04 08:54:14;;;;;;;15.07;14.27;;;;;;;24.78;39.53;100826.38;5020934;28;20113;-67
2022/10/04 08:57:04;;;;;;;13.25;12.60;;;;;;;25.63;38.51;100835.22;5021137;28;20041;-67
2022/10/04 08:59:51;;;;;;;13.55;12.85;;;;;;;23.86;41.42;100822.88;5020042;28;20033;-67
2022/10/04 09:02:32;;;;;;;13.27;12.63;;;;;;;25.99;39.07;100828.00;5021489;28;20025;-67
2022/10/04 09:05:25;;;;;;;13.07;12.48;;;;;;;26.59;37.63;100826.41;5021455;28;20046;-67
2022/10/04 09:08:21;;;;;;;12.55;11.95;;;;;;;25.16;39.12;100827.16;5025607;28;20037;-67
2022/10/04 09:11:19;;;;;;;12.82;12.23;;;;;;;23.17;42.42;100822.59;5025375;28;20745;-66
2022/10/04 09:14:02;;;;;;;13.52;12.82;;;;;;;23.90;41.90;100820.47;4975000;28;20046;-67
2022/10/04 09:16:40;;;;;;;13.13;12.43;;;;;;;21.59;47.39;100828.03;5022458;28;20033;-67
2022/10/04 09:19:39;;;;;;;13.85;13.15;;;;;;;21.05;51.63;100829.31;5020258;28;20083;-68
2022/10/04 09:22:32;;;;;;;13.45;12.75;;;;;;;19.81;57.43;100826.53;5026028;28;20025;-65
2022/10/04 09:25:33;;;;;;;13.45;12.75;;;;;;;19.24;62.41;100826.81;5024686;28;20465;-66
2022/10/04 09:28:14;;;;;;;13.73;13.02;;;;;;;18.69;70.36;100823.22;5006472;28;20044;-67
2022/10/04 09:30:58;;;;;;;13.65;12.95;;;;;;;20.28;62.84;100832.06;5023104;28;20083;-67
2022/10/04 09:33:29;;;;;;;13.73;13.02;;;;;;;21.31;58.48;100836.13;5029018;28;20026;-67
2022/10/04 09:36:29;;;;;;;13.15;12.55;;;;;;;21.08;56.29;100829.69;5023855;28;20029;-68
2022/10/04 09:39:14;;;;;;;13.20;12.50;;;;;;;20.54;57.49;100826.28;5027297;28;20477;-68
2022/10/04 09:41:44;;;;;;;14.20;13.40;;;;;;;19.99;62.83;100822.97;5026268;28;20040;-69
2022/10/04 09:44:19;;;;;;;15.15;14.25;;;;;;;20.47;58.08;100830.94;5021003;28;20045;-69
2022/10/04 09:47:23;;;;;;;13.80;13.10;;;;;;;19.71;63.18;100828.94;5023543;28;20038;-67
2022/10/04 09:50:17;;;;;;;14.25;13.45;;;;;;;20.31;61.77;100834.28;5024575;28;20562;-66
2022/10/04 09:53:01;;;;;;;16.95;15.85;;;;;;;20.41;59.37;100840.75;5019277;28;20064;-68
2022/10/04 09:55:51;;;;;;;13.50;12.80;;;;;;;19.93;58.20;100835.47;5020731;28;20025;-68
2022/10/04 09:58:50;;;;;;;13.88;13.07;;;;;;;19.63;59.36;100837.34;5012902;28;20036;-67
2022/10/04 10:01:34;;;;;;;14.20;13.40;;;;;;;19.95;59.83;100838.75;5020053;28;20033;-69
2022/10/04 10:04:23;;;;;;;13.43;12.73;;;;;;;19.43;63.36;100843.75;5021524;28;20037;-68
2022/10/04 10:07:20;;;;;;;12.57;11.98;;;;;;;18.92;72.63;100839.53;5022297;28;20520;-68
2022/10/04 10:15:39;;;;;;;13.20;12.50;;;;;;;18.89;72.80;100850.75;5027700;28;20037;-69
2022/10/04 10:19:00;;;;;;;13.30;12.60;;;;;;;19.24;72.12;100845.63;5023622;28;20271;-69
2022/10/04 10:21:49;;;;;;;13.38;12.68;;;;;;;18.74;69.33;100842.22;5005282;28;20036;-68
2022/10/04 10:24:23;;;;;;;13.00;12.40;;;;;;;18.88;67.89;100838.34;5001479;28;20032;-68
2022/10/04 10:27:18;;;;;;;13.32;12.63;;;;;;;19.26;66.89;100837.34;5018731;28;20041;-66
2022/10/04 10:29:50;;;;;;;13.60;12.90;;;;;;;19.18;64.58;100837.63;5019698;28;20017;-67
2022/10/04 10:32:49;;;;;;;15.27;14.35;;;;;;;19.24;63.12;100836.72;5018677;28;20022;-67
2022/10/04 10:35:25;;;;;;;12.70;12.07;;;;;;;19.10;64.07;100841.44;5011785;28;20037;-68
2022/10/04 10:38:05;;;;;;;14.38;13.57;;;;;;;18.90;62.38;100835.44;5018849;28;20037;-68
2022/10/04 10:40:53;;;;;;;15.50;14.55;;;;;;;19.20;62.40;100838.22;5019062;28;20026;-70
2022/10/04 10:43:41;;;;;;;13.77;13.02;;;;;;;18.84;66.11;100839.00;5014922;28;20038;-69
2022/10/04 10:46:25;;;;;;;13.52;12.82;;;;;;;19.30;61.55;100833.13;5001045;28;20114;-68
2022/10/04 10:49:07;;;;;;;14.52;13.68;;;;;;;19.67;62.50;100841.22;5022188;28;20029;-69
2022/10/04 10:51:57;;;;;;;14.00;13.20;;;;;;;19.27;59.74;100839.81;5039730;28;20164;-68
2022/10/04 10:54:41;;;;;;;14.02;13.23;;;;;;;19.18;58.98;100845.72;5021782;28;20053;-68
2022/10/04 10:57:22;;;;;;;13.30;12.60;;;;;;;19.45;57.07;100846.22;5016205;28;20037;-68
2022/10/04 11:00:18;;;;;;;13.38;12.68;;;;;;;19.95;56.42;100854.91;5020836;28;20044;-68
2022/10/04 11:03:20;;;;;;;14.45;13.65;;;;;;;20.03;56.86;100851.06;5017215;28;20099;-68
2022/10/04 11:06:04;;;;;;;13.25;12.55;;;;;;;19.92;57.12;100844.59;5019611;28;20033;-67
2022/10/04 11:08:55;;;;;;;12.88;12.20;;;;;;;20.14;59.12;100856.50;5015065;28;20051;-68
2022/10/04 11:11:43;;;;;;;12.93;12.23;;;;;;;20.06;58.15;100856.03;5014521;28;20157;-69
2022/10/04 11:14:12;;;;;;;15.02;14.13;;;;;;;19.56;56.19;100850.84;5036215;28;20038;-67
2022/10/04 11:17:15;;;;;;;13.32;12.63;;;;;;;20.14;56.58;100853.81;5025078;28;20459;-66
2022/10/04 11:20:02;;;;;;;12.55;11.95;;;;;;;20.39;55.53;100850.13;5026005;28;20033;-68
2022/10/04 11:22:57;;;;;;;13.18;12.48;;;;;;;20.11;55.43;100856.97;5024428;28;20051;-68
2022/10/04 11:25:34;;;;;;;14.63;13.73;;;;;;;19.99;56.20;100848.03;5026813;28;20076;-69
2022/10/04 11:28:12;;;;;;;14.30;13.50;;;;;;;19.38;59.83;100851.66;5042151;28;20270;-68
2022/10/04 11:31:02;;;;;;;13.50;12.80;;;;;;;19.81;59.16;100858.84;5028500;28;20064;-68
2022/10/04 11:33:30;;;;;;;14.13;13.32;;;;;;;19.80;56.36;100844.56;5023128;28;20060;-67
2022/10/04 11:36:38;;;;;;;13.65;12.95;;;;;;;19.66;58.55;100850.34;5030538;28;20092;-68
2022/10/04 11:39:36;;;;;;;13.25;12.55;;;;;;;20.11;57.47;100854.25;5018720;28;20022;-68
2022/10/04 11:42:47;;;;;;;15.05;14.15;;;;;;;19.82;60.79;100855.91;5029291;28;20063;-67
2022/10/04 11:45:56;;;;;;;15.15;14.25;;;;;;;19.57;58.31;100861.41;5017242;28;20088;-68
2022/10/04 11:48:37;;;;;;;13.20;12.50;;;;;;;19.86;58.80;100856.28;5005982;28;20048;-70
2022/10/04 11:51:43;;;;;;;13.63;12.93;;;;;;;19.46;57.65;100862.16;5026546;28;20033;-68
2022/10/04 11:54:37;;;;;;;14.82;13.93;;;;;;;19.86;56.34;100862.50;5022732;28;20429;-67
2022/10/04 11:57:21;;;;;;;13.60;12.90;;;;;;;19.70;56.75;100865.00;5039057;28;20444;-67
2022/10/04 11:59:55;;;;;;;12.75;12.10;;;;;;;19.45;55.40;100865.88;5022546;28;20112;-67
2022/10/04 12:02:35;;;;;;;;;;;;;;;19.17;57.79;100860.19;5027512;28;20033;-68
2022/10/04 12:05:20;;;;;;;14.23;13.43;;;;;;;19.59;56.86;100863.88;5023902;28;19929;-68
2022/10/04 12:08:12;;;;;;;13.88;13.07;;;;;;;19.17;56.95;100871.78;5025704;28;20515;-68
2022/10/04 12:10:40;;;;;;;13.25;12.55;;;;;;;19.02;58.20;100861.38;5028154;28;20045;-67
2022/10/04 12:13:26;;;;;;;13.15;12.45;;;;;;;19.37;55.86;100859.97;5017623;28;20026;-67
2022/10/04 12:15:58;;;;;;;13.77;13.02;;;;;;;19.33;56.56;100862.28;5028124;28;20120;-67